createdAt,value
2023-03-25T18:11:19.350Z,1002.10
2023-03-25T18:12:19.268Z,1002.08
2023-03-25T18:13:19.220Z,1002.02
2023-03-25T18:14:19.163Z,1002.12
2023-03-25T18:15:19.116Z,1002.18
2023-03-25T18:16:19.096Z,1002.14
2023-03-25T18:17:19.020Z,1002.14
2023-03-25T18:18:18.971Z,1002.13
2023-03-25T18:19:18.972Z,1002.14
2023-03-25T18:20:19.072Z,1002.11
2023-03-25T18:21:18.843Z,1002.14
2023-03-25T18:22:20.424Z,1002.16
2023-03-25T18:23:18.729Z,1002.14
2023-03-25T18:24:18.680Z,1002.14
2023-03-25T18:25:18.635Z,1002.21
2023-03-25T18:26:18.717Z,1002.18
2023-03-25T18:27:18.562Z,1002.22
2023-03-25T18:29:18.452Z,1002.27
2023-03-25T18:30:18.405Z,1002.26
2023-03-25T18:31:18.412Z,1002.28
2023-03-25T18:32:18.336Z,1002.28
2023-03-25T18:33:18.266Z,1002.25
2023-03-25T18:34:18.230Z,1002.37
2023-03-25T18:35:18.185Z,1002.29
2023-03-25T18:36:18.130Z,1002.32
2023-03-25T18:37:18.083Z,1002.32
2023-03-25T18:38:18.050Z,1002.27
2023-03-25T18:39:18.319Z,1002.38
2023-03-25T18:40:17.981Z,1002.34
2023-03-25T18:41:17.903Z,1002.39
2023-03-25T18:42:17.890Z,1002.40
2023-03-25T18:43:17.834Z,1002.47
2023-03-25T18:44:17.768Z,1002.43
2023-03-25T18:45:17.745Z,1002.36
2023-03-25T18:46:17.755Z,1002.31
2023-03-25T18:47:17.660Z,1002.37
2023-03-25T18:48:17.589Z,1002.38
2023-03-25T18:49:17.542Z,1002.37
2023-03-25T18:50:17.526Z,1002.36
2023-03-25T18:51:17.459Z,1002.36
2023-03-25T18:52:17.416Z,1002.42
2023-03-25T18:53:17.365Z,1002.33
2023-03-25T18:54:17.321Z,1002.32
2023-03-25T18:55:17.284Z,1002.35
2023-03-25T18:56:17.371Z,1002.39
2023-03-25T18:57:17.187Z,1002.27
2023-03-25T18:58:17.146Z,1002.41
2023-03-25T18:59:17.123Z,1002.33
2023-03-25T19:00:17.268Z,1002.40
2023-03-25T19:01:17.104Z,1002.36
2023-03-25T19:02:17.018Z,1002.37
2023-03-25T19:03:16.968Z,1002.36
2023-03-25T19:04:16.876Z,1002.36
2023-03-25T19:05:16.824Z,1002.37
2023-03-25T19:06:16.782Z,1002.35
2023-03-25T19:07:16.734Z,1002.42
2023-03-25T19:08:16.725Z,1002.37
2023-03-25T19:09:16.644Z,1002.36
2023-03-25T19:10:16.629Z,1002.34
2023-03-25T19:11:21.850Z,1002.25
2023-03-25T19:12:16.526Z,1002.31
2023-03-25T19:13:16.467Z,1002.37
2023-03-25T19:14:16.439Z,1002.34
2023-03-25T19:15:16.420Z,1002.37
2023-03-25T19:16:16.390Z,1002.40
2023-03-25T19:17:16.343Z,1002.23
2023-03-25T19:18:16.285Z,1002.27
2023-03-25T19:19:16.198Z,1002.33
2023-03-25T19:20:16.156Z,1002.38
2023-03-25T19:21:16.153Z,1002.33
2023-03-25T19:22:16.072Z,1002.38
2023-03-25T19:23:16.085Z,1002.40
2023-03-25T19:24:16.019Z,1002.42
2023-03-25T19:25:15.953Z,1002.36
2023-03-25T19:26:15.927Z,1002.39
2023-03-25T19:27:15.855Z,1002.46
2023-03-25T19:28:15.798Z,1002.56
2023-03-25T19:29:15.749Z,1002.48
2023-03-25T19:30:15.707Z,1002.48
2023-03-25T19:31:15.925Z,1002.49
2023-03-25T19:32:15.623Z,1002.61
2023-03-25T19:33:15.585Z,1002.73
2023-03-25T19:34:15.532Z,1002.78
2023-03-25T19:35:15.488Z,1002.82
2023-03-25T19:36:15.592Z,1002.85
2023-03-25T19:37:15.394Z,1002.83
2023-03-25T19:38:15.355Z,1002.85
2023-03-25T19:39:15.315Z,1002.92
2023-03-25T19:40:15.263Z,1002.88
2023-03-25T19:41:15.218Z,1003.09
2023-03-25T19:42:15.174Z,1003.15
2023-03-25T19:43:15.131Z,1003.29
2023-03-25T19:44:15.089Z,1003.34
2023-03-25T19:45:15.041Z,1003.25
2023-03-25T19:46:15.025Z,1003.24
2023-03-25T19:47:14.977Z,1003.15
2023-03-25T19:48:14.905Z,1003.18
2023-03-25T19:49:20.555Z,1003.20
2023-03-25T19:50:14.826Z,1003.22
2023-03-25T19:51:14.766Z,1003.17
2023-03-25T19:52:14.730Z,1003.13
2023-03-25T19:53:14.680Z,1003.06
2023-03-25T19:54:14.637Z,1003.03
2023-03-25T19:55:14.591Z,1002.95
2023-03-25T19:56:14.553Z,1002.85
2023-03-25T19:57:14.528Z,1002.94
2023-03-25T19:58:14.466Z,1002.88
2023-03-25T19:59:14.413Z,1003.08
2023-03-25T20:00:14.380Z,1003.18
2023-03-25T20:01:14.352Z,1003.29
2023-03-25T20:02:14.298Z,1003.29
2023-03-25T20:03:14.445Z,1003.24
2023-03-25T20:04:16.676Z,1003.19
2023-03-25T20:05:14.147Z,1003.13
2023-03-25T20:06:14.107Z,1003.09
2023-03-25T20:07:14.056Z,1003.06
2023-03-25T20:08:14.016Z,1003.08
2023-03-25T20:09:13.977Z,1003.07
2023-03-25T20:10:20.074Z,1003.01
2023-03-25T20:11:13.879Z,1003.01
2023-03-25T20:12:13.839Z,1002.97
2023-03-25T20:13:13.795Z,1002.96
2023-03-25T20:14:13.745Z,1002.89
2023-03-25T20:15:13.719Z,1002.93
2023-03-25T20:16:13.685Z,1002.98
2023-03-25T20:18:13.572Z,1003.02
2023-03-25T20:19:13.544Z,1002.97
2023-03-25T20:21:13.432Z,1002.99
2023-03-25T20:22:24.129Z,1002.97
2023-03-25T20:23:13.358Z,1002.99
2023-03-25T20:24:13.303Z,1002.89
2023-03-25T20:25:13.262Z,1002.92
2023-03-25T20:26:13.209Z,1002.91
2023-03-25T20:27:13.167Z,1002.91
2023-03-25T20:28:13.118Z,1002.89
2023-03-25T20:29:13.084Z,1002.89
2023-03-25T20:30:13.039Z,1002.97
2023-03-25T20:31:13.024Z,1002.95
2023-03-25T20:32:12.944Z,1002.97
2023-03-25T20:33:12.965Z,1003.05
2023-03-25T20:34:12.871Z,1003.04
2023-03-25T20:35:12.837Z,1003.08
2023-03-25T20:36:12.812Z,1003.10
2023-03-25T20:37:12.715Z,1003.08
2023-03-25T20:38:12.681Z,1003.09
2023-03-25T20:39:12.640Z,1003.01
2023-03-25T20:40:12.587Z,1003.03
2023-03-25T20:41:12.537Z,1003.13
2023-03-25T20:42:12.503Z,1003.17
2023-03-25T20:43:12.448Z,1003.15
2023-03-25T20:44:13.648Z,1003.12
2023-03-25T20:45:12.369Z,1003.16
2023-03-25T20:46:12.325Z,1003.24
2023-03-25T20:47:12.269Z,1003.28
2023-03-25T20:48:12.374Z,1003.29
2023-03-25T20:49:12.182Z,1003.26
2023-03-25T20:50:12.141Z,1003.34
2023-03-25T20:51:12.104Z,1003.31
2023-03-25T20:52:12.045Z,1003.30
2023-03-25T20:53:12.002Z,1003.37
2023-03-25T20:54:11.953Z,1003.39
2023-03-25T20:55:11.908Z,1003.37
2023-03-25T20:56:11.880Z,1003.44
2023-03-25T20:57:11.874Z,1003.45
2023-03-25T20:58:11.771Z,1003.41
2023-03-25T20:59:11.725Z,1003.26
2023-03-25T21:00:11.690Z,1003.24
2023-03-25T21:01:11.663Z,1003.33
2023-03-25T21:02:11.712Z,1003.36
2023-03-25T21:03:11.574Z,1003.34
2023-03-25T21:04:11.534Z,1003.38
2023-03-25T21:05:11.452Z,1003.28
2023-03-25T21:06:22.873Z,1003.25
2023-03-25T21:07:11.399Z,1003.28
2023-03-25T21:08:11.320Z,1003.36
2023-03-25T21:09:11.274Z,1003.39
2023-03-25T21:10:11.239Z,1003.45
2023-03-25T21:11:11.186Z,1003.44
2023-03-25T21:12:11.159Z,1003.53
